Terminal Aerodrome Forecast
Issued by NWS

Home | Current Version | Previous Version | Text Only | Print | Product List | Glossary On
Versions: 1 2 3 4 5 6 7 8 9 10 11 12 13 14
013
FTUS44 KTSA 080332 AAB
TAFRVS
TAF AMD
KRVS 080332Z 0804/0824 32012G19KT P6SM SKC
     FM081500 33015G27KT P6SM SCT050=

USA.gov is the U.S. government's official web portal to all federal, state and local government web resources and services.